Los Angeles, CA (90067)

4:24 PM PDT on September 20, 2014 (GMT -0700)
Westwood | Change Station
CLOSE
Current Station
Personal Weather Station
Location: Los Angeles, CA
Elevation: 312 ft
Nearby Weather Stations

Elev 312 ft 34.06 °N, 118.45 °W | Updated 40 seconds ago

Clear
Clear
73.6 °F
Feels Like 76 °F
N
5.0
Wind Variable Wind from WNW
Gusts 10.0 mph

Today
High -- | Low -- °F
--% Chance of Precip.
Yesterday
High -- | Low -- °F
Precip. -- in
6:40 AM 6:53 PM
Waning Crescent, 10% visible
Pressure 29.89 in
Visibility 10.0 miles
Clouds Clear
Heat Index 76 °F
Dew Point 63 °F
Humidity 69%
Rainfall 0.00 in
Snow Depth 0 in , 0 in , 0 in
UV 1.2 out of 12
Pollen 6.80 out of 12
Ozone Good
Flu Activity Not available.
METAR KSMO 202251Z 23007KT 10SM CLR 23/15 A2990 RMK AO2 SLP122 T02330150

More Conditions Fewer Conditions

Pressure 29.89 in
Visibility 10.0 miles
Clouds Clear
Heat Index 76 °F
Dew Point 63 °F
Humidity 69%
Rainfall 0.00 in
Snow Depth 0 in , 0 in , 0 in
UV 1.2 out of 12
Pollen 6.80 out of 12
Ozone Good
Flu Activity Not available.
METAR KSMO 202251Z 23007KT 10SM CLR 23/15 A2990 RMK AO2 SLP122 T02330150

More Conditions Fewer Conditions

10-Day Weather Forecast

Almanac

Astronomy

Sep. 20, 2014 Rise Set
Actual Time 6:40 AM PDT 6:53 PM PDT
Civil Twilight 6:15 AM PDT 7:18 PM PDT
Nautical Twilight 5:46 AM PDT 7:47 PM PDT
Astronomical Twilight 5:16 AM PDT 8:16 PM PDT
Moon 3:31 AM PDT 4:53 PM PDT
Length of Visible Light 13h 02m
Length of Day
12h 12m
Tomorrow will be 2m 6s shorter.
Waning Crescent, 10% of the Moon is Illuminated
Today
Waning Crescent
Sep 24
New
Oct 1
First Quarter
Oct 8
Full
Oct 15
Last Quarter

Today's Extremes

State Highs State Lows

Community

WunderPhotos

Upload Photos

1,754,978 photos uploaded!

WunderBlogs® & News

Nearby

Air Quality

  Air Quality AQ Index Pollutant
Yesterday Good
OZONE
Current Good
OZONE
Sunday Good
PM10
Sunday Good
OZONE
Sunday Good
CO
Sunday Good
NO2

Snow Depth

Station Depth Elevation
Leavitt Meadows 0 in 7200 ft
Leavitt Lake 0 in 9400 ft
Summit Meadow 0 in 9122 ft
Monitor Pass 0 in 8350 ft
Adin Mountain 0 in 6200 ft

Earthquake Activity

City Distance Mag. Time & Date
Inyokern, California 141 miles 3.1 5:33 PM PDT
2014-09-19
Aguanga, California 101 miles 2.5 1:38 AM PDT
2014-09-19
Minimum magnitude displayed is 2.5.

Coastal Water Temperatures

Place Temperature
Santa Monica Pier 70.0 °F
Los Angeles, CA 66.9 °F
La Jolla, CA 73.0 °F

Nearby Weather Stations